createdAt,value
2023-04-26T00:02:15.838Z,92402.91
2023-04-26T00:04:42.852Z,92418.97
2023-04-26T00:07:09.377Z,92428.47
2023-04-26T00:09:35.852Z,92408.94
2023-04-26T00:12:03.265Z,92418.97
2023-04-26T00:14:29.667Z,92428.22
2023-04-26T00:16:56.344Z,92427.44
2023-04-26T00:19:24.337Z,92434.53
2023-04-26T00:21:50.756Z,92438.78
2023-04-26T00:24:17.574Z,92442.22
2023-04-26T00:26:44.431Z,92447.00
2023-04-26T00:29:10.966Z,92445.94
2023-04-26T00:31:37.973Z,92443.31
2023-04-26T00:34:04.432Z,92481.03
2023-04-26T00:36:32.327Z,92489.81
2023-04-26T00:38:59.104Z,92485.56
2023-04-26T00:41:25.661Z,92480.81
2023-04-26T00:43:52.104Z,92458.63
2023-04-26T00:46:19.033Z,92463.38
2023-04-26T00:48:46.942Z,92462.84
2023-04-26T00:51:14.075Z,92447.00
2023-04-26T00:53:41.612Z,92435.94
2023-04-26T00:56:10.484Z,92461.00
2023-04-26T00:58:37.512Z,92461.28
2023-04-26T01:01:03.993Z,92473.13
2023-04-26T01:03:31.475Z,92476.56
2023-04-26T01:05:58.562Z,92473.63
2023-04-26T01:08:25.211Z,92480.75
2023-04-26T01:10:53.319Z,92484.97
2023-04-26T01:13:19.732Z,92494.69
2023-04-26T01:15:47.343Z,92493.38
2023-04-26T01:18:15.378Z,92497.84
2023-04-26T01:20:43.004Z,92508.94
2023-04-26T01:23:11.524Z,92505.22
2023-04-26T01:25:38.502Z,92499.22
2023-04-26T01:28:05.241Z,92499.75
2023-04-26T01:30:32.029Z,92512.41
2023-04-26T01:32:58.620Z,92534.53
2023-04-26T01:35:25.249Z,92536.66
2023-04-26T01:37:52.221Z,92542.44
2023-04-26T01:40:18.758Z,92553.47
2023-04-26T01:42:45.210Z,92548.75
2023-04-26T01:45:12.282Z,92546.38
2023-04-26T01:47:38.749Z,92542.94
2023-04-26T01:50:06.186Z,92550.31
2023-04-26T01:52:32.996Z,92546.88
2023-04-26T01:54:59.779Z,92548.22
2023-04-26T01:57:26.222Z,92552.44
2023-04-26T01:59:54.158Z,92563.19
2023-04-26T02:02:21.430Z,92561.88
2023-04-26T02:04:47.898Z,92557.69
2023-04-26T02:07:14.780Z,92555.59
2023-04-26T02:09:41.392Z,92561.38
2023-04-26T02:12:07.800Z,92580.34
2023-04-26T02:14:34.816Z,92574.56
2023-04-26T02:17:01.307Z,92575.09
2023-04-26T02:19:27.730Z,92571.41
2023-04-26T02:21:56.617Z,92571.41
2023-04-26T02:24:25.932Z,92575.63
2023-04-26T02:26:54.367Z,92576.91
2023-04-26T02:29:29.406Z,92576.16
2023-04-26T02:32:07.597Z,92567.19
2023-04-26T02:34:34.442Z,92584.28
2023-04-26T02:37:02.192Z,92588.78
2023-04-26T02:39:29.377Z,92594.03
2023-04-26T02:41:55.847Z,92590.91
2023-04-26T02:44:22.267Z,92593.25
2023-04-26T02:46:49.237Z,92588.78
2023-04-26T02:49:16.484Z,92580.91
2023-04-26T02:51:42.935Z,92585.38
2023-04-26T02:54:09.973Z,92587.22
2023-04-26T02:56:36.376Z,92581.19
2023-04-26T02:59:02.817Z,92580.91
2023-04-26T03:01:29.627Z,92580.66
2023-04-26T03:03:56.305Z,92591.97
2023-04-26T03:06:23.241Z,92593.53
2023-04-26T03:08:49.804Z,92593.53
2023-04-26T03:11:16.309Z,92598.28
2023-04-26T03:13:43.135Z,92601.94
2023-04-26T03:16:09.590Z,92599.03
2023-04-26T03:18:36.758Z,92599.03
2023-04-26T03:21:03.782Z,92602.47
2023-04-26T03:23:30.270Z,92599.84
2023-04-26T03:25:57.076Z,92602.97
2023-04-26T03:28:23.470Z,92613.25
2023-04-26T03:30:50.551Z,92614.81
2023-04-26T03:33:17.580Z,92622.97
2023-04-26T03:35:44.160Z,92622.16
2023-04-26T03:38:11.143Z,92625.59
2023-04-26T03:40:37.576Z,92622.19
2023-04-26T03:43:04.548Z,92624.53
2023-04-26T03:45:31.023Z,92612.72
2023-04-26T03:47:57.451Z,92619.81
2023-04-26T03:50:24.276Z,92627.19
2023-04-26T03:52:50.879Z,92618.25
2023-04-26T03:55:17.645Z,92610.88
2023-04-26T03:57:44.037Z,92607.72
2023-04-26T04:00:11.966Z,92607.44
2023-04-26T04:02:38.808Z,92616.41
2023-04-26T04:05:05.837Z,92621.13
2023-04-26T04:07:32.912Z,92628.72
2023-04-26T04:10:00.187Z,92619.31
2023-04-26T04:12:26.810Z,92619.81
2023-04-26T04:14:53.228Z,92633.47
2023-04-26T04:17:19.849Z,92645.03
2023-04-26T04:19:46.395Z,92630.31
2023-04-26T04:22:12.788Z,92631.38
2023-04-26T04:24:39.529Z,92631.91
2023-04-26T04:27:05.985Z,92629.28
2023-04-26T04:29:32.843Z,92636.63
2023-04-26T04:32:00.090Z,92627.19
2023-04-26T04:34:26.502Z,92621.66
2023-04-26T04:36:53.008Z,92621.63
2023-04-26T04:39:19.948Z,92634.81
2023-04-26T04:41:49.503Z,92626.66
2023-04-26T04:44:16.336Z,92621.38
2023-04-26T04:46:43.451Z,92625.59
2023-04-26T04:49:12.998Z,92629.81
2023-04-26T04:51:39.479Z,92636.09
2023-04-26T04:54:17.007Z,92636.38
2023-04-26T04:56:43.891Z,92637.94
2023-04-26T04:59:11.286Z,92627.69
2023-04-26T05:01:39.046Z,92638.47
2023-04-26T05:04:06.828Z,92649.53
2023-04-26T05:06:33.578Z,92652.41
2023-04-26T05:09:01.933Z,92634.53
2023-04-26T05:11:28.389Z,92622.94
2023-04-26T05:13:54.941Z,92627.66
2023-04-26T05:16:22.002Z,92633.47
2023-04-26T05:18:48.412Z,92635.00
2023-04-26T05:21:15.126Z,92624.72
2023-04-26T05:23:41.926Z,92637.09
2023-04-26T05:26:10.437Z,92631.00
2023-04-26T05:28:37.311Z,92641.25
2023-04-26T05:31:04.133Z,92656.25
2023-04-26T05:33:30.892Z,92655.38
2023-04-26T05:35:58.730Z,92643.19
2023-04-26T05:38:25.467Z,92683.59
2023-04-26T05:40:51.919Z,92734.97
2023-04-26T05:43:18.944Z,92749.72
2023-04-26T05:45:57.805Z,92758.38
2023-04-26T05:48:25.776Z,92728.81
2023-04-26T05:50:52.895Z,92743.56
2023-04-26T05:53:19.873Z,92732.97
2023-04-26T05:58:34.360Z,92664.53
2023-04-26T06:01:00.793Z,92644.00
2023-04-26T06:03:27.465Z,92727.66
2023-04-26T06:05:54.691Z,92768.03
2023-04-26T06:08:21.201Z,92819.41
2023-04-26T06:10:47.737Z,92830.94
2023-04-26T06:13:14.449Z,92871.09
2023-04-26T06:15:40.982Z,92924.84
2023-04-26T06:18:07.483Z,92966.78
2023-04-26T06:20:34.303Z,93026.88
2023-04-26T06:23:00.861Z,93056.19
2023-04-26T06:25:27.673Z,93065.34
2023-04-26T06:27:54.484Z,93044.19
2023-04-26T06:30:20.893Z,93064.91
2023-04-26T06:32:47.372Z,93105.63
2023-04-26T06:35:14.306Z,93049.34
2023-04-26T06:37:40.672Z,93126.31
2023-04-26T06:40:07.965Z,93228.84
2023-04-26T06:42:34.950Z,93330.72
2023-04-26T06:45:01.412Z,93359.22
2023-04-26T06:47:27.872Z,93357.56
2023-04-26T06:49:54.706Z,93429.06
2023-04-26T06:52:21.666Z,93299.50
2023-04-26T06:54:56.598Z,93222.38
2023-04-26T06:57:24.124Z,93325.22
2023-04-26T06:59:51.633Z,93547.97
2023-04-26T07:02:18.364Z,93662.19
2023-04-26T07:04:45.661Z,93764.34
2023-04-26T07:07:13.678Z,93858.53
2023-04-26T07:09:40.917Z,93866.75
2023-04-26T07:12:08.065Z,93863.44
2023-04-26T07:14:37.102Z,93873.31
2023-04-26T07:17:04.466Z,93937.53
2023-04-26T07:19:31.354Z,93965.41
2023-04-26T07:21:58.130Z,94033.94
2023-04-26T07:24:24.811Z,94144.72
2023-04-26T07:26:51.816Z,94173.38
2023-04-26T07:29:19.197Z,94097.78
2023-04-26T07:31:46.033Z,94114.72
2023-04-26T07:34:13.686Z,94178.19
2023-04-26T07:36:40.062Z,94176.38
2023-04-26T07:39:06.749Z,94184.03
2023-04-26T07:41:33.608Z,94197.28
2023-04-26T07:44:00.076Z,94201.09
2023-04-26T07:46:26.693Z,94200.44
2023-04-26T07:48:53.221Z,94165.50
2023-04-26T07:51:19.909Z,94232.78
2023-04-26T07:53:46.742Z,94240.56
2023-04-26T07:56:13.589Z,94369.66
2023-04-26T07:58:40.076Z,95264.09
2023-04-26T08:01:07.185Z,95670.34
2023-04-26T08:03:33.815Z,95668.25
2023-04-26T08:06:01.166Z,95659.72
2023-04-26T08:08:28.806Z,95758.13
2023-04-26T08:10:55.919Z,95615.03
2023-04-26T08:13:22.437Z,95537.53
2023-04-26T08:15:49.380Z,95531.06
2023-04-26T08:18:15.803Z,95510.66
2023-04-26T08:20:42.393Z,95557.81
2023-04-26T08:23:09.235Z,95532.25
2023-04-26T08:25:35.851Z,95554.47
2023-04-26T08:28:02.546Z,95541.34
2023-04-26T08:30:30.341Z,95554.44
2023-04-26T08:32:56.898Z,95532.47
2023-04-26T08:35:23.423Z,95482.47
2023-04-26T08:37:49.861Z,95523.00
2023-04-26T08:40:22.743Z,95497.50
2023-04-26T08:42:49.573Z,95535.94
2023-04-26T08:45:16.252Z,95588.59
2023-04-26T08:47:57.364Z,95569.34
2023-04-26T08:50:24.265Z,95583.56
2023-04-26T08:52:52.024Z,95562.53
2023-04-26T08:55:20.487Z,95531.34
2023-04-26T08:57:48.834Z,95523.00
2023-04-26T09:00:16.563Z,95482.22
2023-04-26T09:02:49.046Z,95426.28
2023-04-26T09:05:15.810Z,95380.78
2023-04-26T09:07:45.379Z,95328.19
2023-04-26T09:10:13.830Z,95275.31
2023-04-26T09:12:40.638Z,95283.41
2023-04-26T09:15:08.411Z,95290.81
2023-04-26T09:17:37.647Z,95302.84
2023-04-26T09:20:26.011Z,95338.88
2023-04-26T09:22:54.499Z,95332.22
2023-04-26T09:25:29.765Z,95351.25
2023-04-26T09:27:56.670Z,95341.16
2023-04-26T09:30:23.332Z,95308.13
2023-04-26T09:32:52.088Z,95307.75
2023-04-26T09:35:34.996Z,95302.94
2023-04-26T09:38:13.575Z,95259.91
2023-04-26T09:40:46.755Z,95270.00
2023-04-26T09:43:15.512Z,95247.13
2023-04-26T09:45:46.968Z,95248.84
2023-04-26T09:48:14.640Z,95300.44
2023-04-26T09:50:41.089Z,95279.59
2023-04-26T09:53:08.334Z,95236.91
2023-04-26T09:55:36.049Z,95255.84
2023-04-26T09:58:10.502Z,95317.69
2023-04-26T10:00:39.597Z,95387.59
2023-04-26T10:03:08.778Z,95401.56
2023-04-26T10:05:36.782Z,95449.78
2023-04-26T10:08:03.983Z,95412.00
2023-04-26T10:10:31.772Z,95421.13
2023-04-26T10:12:58.753Z,95398.84
2023-04-26T10:15:26.255Z,95401.28
2023-04-26T10:17:52.753Z,95386.59
2023-04-26T10:20:22.083Z,95363.47
2023-04-26T10:22:54.059Z,95387.84
2023-04-26T10:25:21.163Z,95395.97
2023-04-26T10:27:48.816Z,95351.19
2023-04-26T10:30:17.331Z,95359.81
2023-04-26T10:32:53.409Z,95529.09
2023-04-26T10:35:20.482Z,95625.22
2023-04-26T10:38:02.301Z,95669.81
2023-04-26T10:40:38.852Z,95634.84
2023-04-26T10:43:11.775Z,95630.06
2023-04-26T10:45:39.880Z,95592.22
2023-04-26T10:48:21.353Z,95556.25
2023-04-26T10:51:08.330Z,95522.44
2023-04-26T10:53:43.938Z,95516.25
2023-04-26T10:56:10.942Z,95509.00
2023-04-26T10:58:41.463Z,95512.28
2023-04-26T11:01:11.777Z,95495.28
2023-04-26T11:03:38.594Z,95515.94
2023-04-26T11:06:10.380Z,95510.63
2023-04-26T11:08:36.989Z,95528.13
2023-04-26T11:11:03.364Z,95538.25
2023-04-26T11:13:32.048Z,95565.94
2023-04-26T11:16:04.232Z,95646.88
2023-04-26T11:18:32.026Z,95940.59
2023-04-26T11:20:59.220Z,95916.84
2023-04-26T11:23:28.489Z,95928.41
2023-04-26T11:26:03.480Z,95946.13
2023-04-26T11:28:34.954Z,95944.69
2023-04-26T11:31:04.089Z,95949.63
2023-04-26T11:33:30.904Z,95959.44
2023-04-26T11:35:58.595Z,95941.75
2023-04-26T11:38:26.238Z,95958.94
2023-04-26T11:41:01.877Z,95934.50
2023-04-26T11:43:35.628Z,95949.81
2023-04-26T11:46:03.822Z,95942.31
2023-04-26T11:48:31.061Z,95943.22
2023-04-26T11:50:59.467Z,95945.72
2023-04-26T11:53:38.954Z,95937.16
2023-04-26T11:56:17.077Z,95933.25
2023-04-26T11:58:51.225Z,95927.13
2023-04-26T12:01:23.760Z,95941.50
2023-04-26T12:03:54.970Z,95931.59
2023-04-26T12:06:29.162Z,95933.59
2023-04-26T12:08:57.373Z,95944.81
2023-04-26T12:11:23.834Z,95952.13
2023-04-26T12:13:50.315Z,95966.44
2023-04-26T12:18:51.930Z,95964.53
2023-04-26T12:21:19.853Z,95985.47
2023-04-26T12:23:49.192Z,95991.66
2023-04-26T12:26:15.873Z,95992.38
2023-04-26T12:28:43.053Z,95982.53
2023-04-26T12:31:09.647Z,95969.34
2023-04-26T12:33:36.449Z,95972.94
2023-04-26T12:36:08.076Z,95986.06
2023-04-26T12:38:34.517Z,95980.16
2023-04-26T12:41:01.875Z,95970.97
2023-04-26T12:43:28.395Z,95991.28
2023-04-26T12:45:55.021Z,95995.44
2023-04-26T12:48:22.004Z,95990.47
2023-04-26T12:50:49.234Z,95993.13
2023-04-26T12:53:16.895Z,95987.06
2023-04-26T12:55:44.609Z,95985.03
2023-04-26T12:58:11.448Z,95976.28
2023-04-26T13:00:38.220Z,95981.53
2023-04-26T13:03:05.217Z,95989.69
2023-04-26T13:05:32.301Z,95991.22
2023-04-26T13:08:01.862Z,95990.78
2023-04-26T13:10:28.753Z,95996.00
2023-04-26T13:12:55.797Z,95986.53
2023-04-26T13:15:24.084Z,95986.94
2023-04-26T13:17:50.757Z,95982.50
2023-04-26T13:20:17.745Z,95988.75
2023-04-26T13:22:44.187Z,95985.28
2023-04-26T13:25:11.185Z,95988.75
2023-04-26T13:27:37.627Z,95986.53
2023-04-26T13:30:04.724Z,95978.13
2023-04-26T13:32:32.561Z,95984.66
2023-04-26T13:34:59.251Z,95979.28
2023-04-26T13:37:27.212Z,95974.47
2023-04-26T13:39:54.280Z,95994.81
2023-04-26T13:42:21.180Z,95984.34
2023-04-26T13:44:47.625Z,95987.63
2023-04-26T13:47:14.121Z,95985.75
2023-04-26T13:49:41.731Z,95983.03
2023-04-26T13:52:08.180Z,95992.84
2023-04-26T13:54:36.488Z,95984.63
2023-04-26T13:57:03.868Z,95968.06
2023-04-26T13:59:30.390Z,95962.06
2023-04-26T14:01:58.882Z,95970.06
2023-04-26T14:04:26.272Z,95975.97
2023-04-26T14:06:52.916Z,95967.69
2023-04-26T14:09:19.629Z,95960.78
2023-04-26T14:11:49.448Z,95959.66
2023-04-26T14:14:24.288Z,95958.09
2023-04-26T14:16:51.384Z,95954.28
2023-04-26T14:19:18.087Z,95940.19
2023-04-26T14:21:44.595Z,95946.03
2023-04-26T14:24:11.953Z,95940.47
2023-04-26T14:26:38.430Z,95940.84
2023-04-26T14:29:07.643Z,95937.22
2023-04-26T14:31:34.449Z,95940.78
2023-04-26T14:34:01.100Z,95931.72
2023-04-26T14:36:28.043Z,95937.28
2023-04-26T14:38:54.855Z,95931.84
2023-04-26T14:41:21.605Z,95938.25
2023-04-26T14:43:48.136Z,95939.19
2023-04-26T14:46:15.665Z,95936.50
2023-04-26T14:48:43.882Z,95936.09
2023-04-26T14:51:10.348Z,95950.16
2023-04-26T14:53:38.678Z,95941.75
2023-04-26T14:56:07.394Z,95945.72
2023-04-26T14:58:33.978Z,95948.06
2023-04-26T15:01:01.142Z,95946.50
2023-04-26T15:03:27.760Z,95938.13
2023-04-26T15:05:54.627Z,95939.47
2023-04-26T15:08:21.057Z,95939.09
2023-04-26T15:10:47.493Z,95949.09
2023-04-26T15:13:14.317Z,95945.56
2023-04-26T15:15:40.848Z,95949.84
2023-04-26T15:18:07.755Z,95943.38
2023-04-26T15:20:34.238Z,95943.94
2023-04-26T15:23:00.757Z,95942.22
2023-04-26T15:25:27.596Z,95934.84
2023-04-26T15:27:54.394Z,95944.03
2023-04-26T15:30:21.295Z,95944.28
2023-04-26T15:32:49.377Z,95950.03
2023-04-26T15:35:17.606Z,95945.81
2023-04-26T15:37:44.406Z,95945.66
2023-04-26T15:40:12.010Z,95947.13
2023-04-26T15:42:38.877Z,95946.28
2023-04-26T15:45:06.119Z,95948.13
2023-04-26T15:47:34.427Z,95941.38
2023-04-26T15:50:03.683Z,95937.06
2023-04-26T15:52:33.400Z,95927.31
2023-04-26T15:54:59.821Z,95928.25
2023-04-26T15:57:26.363Z,95917.81
2023-04-26T15:59:53.237Z,95925.41
2023-04-26T16:02:19.934Z,95928.22
2023-04-26T16:04:46.963Z,95930.41
2023-04-26T16:07:13.749Z,95929.22
2023-04-26T16:09:41.423Z,95923.84
2023-04-26T16:12:07.878Z,95928.69
2023-04-26T16:14:34.295Z,95930.13
2023-04-26T16:17:02.068Z,95923.84
2023-04-26T16:19:28.453Z,95931.06
2023-04-26T16:21:55.124Z,95932.56
2023-04-26T16:24:22.115Z,95930.00
2023-04-26T16:26:50.195Z,95922.84
2023-04-26T16:29:16.623Z,95924.09
2023-04-26T16:31:44.420Z,95932.34
2023-04-26T16:34:11.260Z,95930.59
2023-04-26T16:36:37.838Z,95928.50
2023-04-26T16:39:04.258Z,95931.41
2023-04-26T16:41:30.965Z,95922.72
2023-04-26T16:43:57.342Z,95928.88
2023-04-26T16:46:23.744Z,95928.88
2023-04-26T16:48:50.422Z,95929.31
2023-04-26T16:51:16.822Z,95921.00
2023-04-26T16:53:43.252Z,95927.94
2023-04-26T16:56:09.822Z,95918.91
2023-04-26T16:58:36.298Z,95915.19
2023-04-26T17:01:02.964Z,95924.94
2023-04-26T17:03:29.787Z,95929.53
2023-04-26T17:05:56.422Z,95927.75
2023-04-26T17:08:22.803Z,95935.09
2023-04-26T17:10:49.412Z,95932.69
2023-04-26T17:13:15.922Z,95942.50
2023-04-26T17:15:42.971Z,95936.56
2023-04-26T17:18:10.413Z,95936.09
2023-04-26T17:20:36.974Z,95934.38
2023-04-26T17:23:04.294Z,95945.78
2023-04-26T17:25:31.493Z,95943.09
2023-04-26T17:27:58.644Z,95939.34
2023-04-26T17:30:25.667Z,95940.16
2023-04-26T17:32:52.224Z,95939.28
2023-04-26T17:35:19.005Z,95935.91
2023-04-26T17:37:50.225Z,95925.72
2023-04-26T17:40:17.985Z,95916.63
2023-04-26T17:42:45.933Z,95875.41
2023-04-26T17:45:14.257Z,95844.78
2023-04-26T17:47:41.709Z,94283.16
2023-04-26T17:50:09.452Z,93694.97
2023-04-26T17:52:36.800Z,93547.06
2023-04-26T17:55:05.110Z,93470.22
2023-04-26T17:57:31.987Z,93532.19
2023-04-26T17:59:58.370Z,93536.75
2023-04-26T18:02:25.473Z,93557.44
2023-04-26T18:04:53.452Z,93587.69
2023-04-26T18:07:20.646Z,93623.72
2023-04-26T18:09:47.062Z,93628.50
2023-04-26T18:12:13.494Z,93640.94
2023-04-26T18:14:45.283Z,93672.78
2023-04-26T18:17:15.189Z,93655.56
2023-04-26T18:19:42.077Z,93650.03
2023-04-26T18:22:09.702Z,93649.75
2023-04-26T18:24:36.213Z,93642.34
2023-04-26T18:27:03.014Z,93624.84
2023-04-26T18:29:30.531Z,93631.47
2023-04-26T18:31:57.084Z,93627.53
2023-04-26T18:34:23.893Z,93616.41
2023-04-26T18:36:50.414Z,93601.59
2023-04-26T18:39:16.813Z,93583.56
2023-04-26T18:41:43.341Z,93584.66
2023-04-26T18:44:16.626Z,93589.66
2023-04-26T18:46:43.385Z,93589.91
2023-04-26T18:49:10.092Z,93609.47
2023-04-26T18:51:37.045Z,93603.09
2023-04-26T18:54:03.716Z,93605.47
2023-04-26T18:56:30.488Z,93606.00
2023-04-26T18:58:57.947Z,93600.69
2023-04-26T19:01:24.997Z,93609.38
2023-04-26T19:03:51.602Z,93603.53
2023-04-26T19:06:18.147Z,93589.78
2023-04-26T19:08:45.340Z,93563.03
2023-04-26T19:11:12.404Z,93572.75
2023-04-26T19:13:40.071Z,93547.38
2023-04-26T19:16:10.357Z,93534.94
2023-04-26T19:18:37.465Z,93498.47
2023-04-26T19:21:05.566Z,93471.50
2023-04-26T19:23:32.020Z,93452.22
2023-04-26T19:26:06.742Z,93437.41
2023-04-26T19:28:33.267Z,93344.50
2023-04-26T19:31:00.524Z,93346.06
2023-04-26T19:33:28.131Z,93340.53
2023-04-26T19:35:56.346Z,93328.66
2023-04-26T19:38:24.062Z,93332.84
2023-04-26T19:40:53.748Z,93324.38
2023-04-26T19:43:20.836Z,93286.88
2023-04-26T19:45:47.734Z,93277.09
2023-04-26T19:48:14.345Z,93228.03
2023-04-26T19:50:42.587Z,93780.22
2023-04-26T19:53:10.287Z,93801.28
2023-04-26T19:55:37.756Z,93806.38
2023-04-26T19:58:05.616Z,93803.69
2023-04-26T20:00:35.624Z,93817.81
2023-04-26T20:03:03.070Z,93817.97
2023-04-26T20:05:30.470Z,93823.44
2023-04-26T20:07:57.442Z,93825.53
2023-04-26T20:10:24.200Z,93815.94
2023-04-26T20:12:51.131Z,93810.66
2023-04-26T20:15:17.697Z,93805.25
2023-04-26T20:17:44.243Z,93797.69
2023-04-26T20:20:12.324Z,93800.81
2023-04-26T20:22:39.811Z,93782.41
2023-04-26T20:25:06.806Z,93779.66
2023-04-26T20:27:33.775Z,93765.84
2023-04-26T20:30:00.809Z,93765.56
2023-04-26T20:32:27.339Z,93765.78
2023-04-26T20:34:53.847Z,93759.47
2023-04-26T20:37:21.027Z,93753.63
2023-04-26T20:39:47.456Z,93757.34
2023-04-26T20:42:14.363Z,93757.66
2023-04-26T20:44:41.114Z,93743.28
2023-04-26T20:47:07.896Z,93738.81
2023-04-26T20:49:34.307Z,93731.44
2023-04-26T20:52:01.314Z,93731.81
2023-04-26T20:54:27.759Z,93721.56
2023-04-26T20:56:54.165Z,93704.94
2023-04-26T20:59:20.951Z,93697.03
2023-04-26T21:01:47.464Z,93688.00
2023-04-26T21:04:14.109Z,93671.25
2023-04-26T21:06:41.529Z,93659.75
2023-04-26T21:09:08.318Z,93645.03
2023-04-26T21:11:34.901Z,93637.66
2023-04-26T21:14:01.857Z,93631.94
2023-04-26T21:16:28.390Z,93620.16
2023-04-26T21:18:54.885Z,93622.28
2023-04-26T21:21:21.730Z,93603.59
2023-04-26T21:23:48.512Z,93598.38
2023-04-26T21:26:14.945Z,93627.44
2023-04-26T21:28:41.358Z,93635.63
2023-04-26T21:31:09.345Z,93628.25
2023-04-26T21:33:35.813Z,93612.66
2023-04-26T21:36:02.185Z,93599.41
2023-04-26T21:38:28.923Z,93294.38
2023-04-26T21:40:55.425Z,93291.16
2023-04-26T21:43:21.829Z,93293.25
2023-04-26T21:45:50.719Z,93298.94
2023-04-26T21:48:17.115Z,93306.78
2023-04-26T21:50:43.713Z,93293.66
2023-04-26T21:53:10.656Z,93294.75
2023-04-26T21:55:37.038Z,93284.81
2023-04-26T21:58:03.433Z,93272.91
2023-04-26T22:00:30.443Z,93286.06
2023-04-26T22:02:57.093Z,93279.72
2023-04-26T22:05:25.834Z,93283.88
2023-04-26T22:07:54.959Z,93287.56
2023-04-26T22:10:21.484Z,93283.84
2023-04-26T22:12:47.859Z,93285.06
2023-04-26T22:15:14.302Z,93283.00
2023-04-26T22:17:40.761Z,93291.38
2023-04-26T22:20:07.849Z,93297.31
2023-04-26T22:22:34.769Z,93308.50
2023-04-26T22:25:01.284Z,93308.13
2023-04-26T22:27:27.756Z,93313.88
2023-04-26T22:29:54.625Z,93314.34
2023-04-26T22:32:21.388Z,93313.22
2023-04-26T22:34:47.868Z,93301.50
2023-04-26T22:37:21.097Z,93298.22
2023-04-26T22:39:49.293Z,93295.56
2023-04-26T22:42:16.145Z,93275.03
2023-04-26T22:44:42.529Z,93250.03
2023-04-26T22:47:08.911Z,93232.16
2023-04-26T22:49:35.820Z,93216.38
2023-04-26T22:52:11.611Z,93220.34
2023-04-26T22:54:38.971Z,93209.34
2023-04-26T22:57:07.299Z,93236.66
2023-04-26T22:59:37.095Z,93238.22
2023-04-26T23:02:04.242Z,93229.53
2023-04-26T23:04:30.711Z,93216.88
2023-04-26T23:06:57.154Z,93221.34
2023-04-26T23:09:24.254Z,93215.56
2023-04-26T23:11:50.993Z,93199.75
2023-04-26T23:14:19.679Z,93196.63
2023-04-26T23:16:46.778Z,93187.72
2023-04-26T23:19:13.500Z,93197.84
2023-04-26T23:21:40.165Z,93171.78
2023-04-26T23:24:07.031Z,93175.31
2023-04-26T23:26:33.420Z,93184.94
2023-04-26T23:28:59.816Z,93185.16
2023-04-26T23:31:26.616Z,93179.41
2023-04-26T23:33:53.082Z,93182.78
2023-04-26T23:36:19.495Z,93192.28
2023-04-26T23:38:46.563Z,93184.88
2023-04-26T23:41:13.053Z,93163.72
2023-04-26T23:43:39.536Z,93145.94
2023-04-26T23:46:06.265Z,93143.53
2023-04-26T23:48:32.667Z,93136.97
2023-04-26T23:51:00.190Z,93144.44
2023-04-26T23:53:27.956Z,93149.06
2023-04-26T23:55:54.326Z,93137.88
2023-04-26T23:58:20.695Z,93128.13
